Time;durP1;ratioP1;P1;durP2;ratioP2;P2;SDS_P1;SDS_P2;PMS_P1;PMS_P2;Temp;Humidity;BMP_temperature;BMP_pressure;BME280_temperature;BME280_humidity;BME280_pressure;Samples;Min_cycle;Max_cycle;Signal;HPM_P1;HPM_P2
2022/11/07 00:01:26;;;;;;;;;;;;;;;20.42;48.72;100545.28;5141245;27;20042;-35
2022/11/07 00:03:53;;;;;;;;;;;;;;;20.42;48.82;100556.34;5135857;27;20335;-34
2022/11/07 00:06:19;;;;;;;;;;;;;;;20.42;48.73;100561.88;5140283;27;19930;-35
2022/11/07 00:08:44;;;;;;;;;;;;;;;20.42;48.67;100570.16;5137974;27;20408;-34
2022/11/07 00:11:10;;;;;;;;;;;;;;;20.42;48.55;100571.00;5144837;27;19973;-35
2022/11/07 00:13:35;;;;;;;;;;;;;;;20.41;48.88;100572.09;5138959;27;19931;-35
2022/11/07 00:16:02;;;;;;;;;;;;;;;20.42;48.61;100570.16;5142309;27;19923;-35
2022/11/07 00:18:27;;;;;;;;;;;;;;;20.42;48.88;100575.69;5121504;27;20420;-35
2022/11/07 00:20:53;;;;;;;;;;;;;;;20.41;48.59;100569.34;5136704;27;20493;-35
2022/11/07 00:23:18;;;;;;;;;;;;;;;20.41;48.79;100580.41;5141108;27;19935;-35
2022/11/07 00:25:44;;;;;;;;;;;;;;;20.41;48.79;100574.88;5141522;27;19934;-34
2022/11/07 00:28:09;;;;;;;;;;;;;;;20.41;48.79;100574.88;5142347;27;19945;-35
2022/11/07 00:30:35;;;;;;;;;;;;;;;20.41;48.84;100583.19;5135400;27;19924;-35
2022/11/07 00:33:01;;;;;;;;;;;;;;;20.41;48.75;100577.63;5141323;27;20058;-35
2022/11/07 00:35:27;;;;;;;;;;;;;;;20.40;48.73;100578.78;5141097;27;19971;-35
2022/11/07 00:37:53;;;;;;;;;;;;;;;20.40;48.73;100578.78;5141397;27;19924;-34
2022/11/07 00:40:18;;;;;;;;;;;;;;;20.41;48.80;100582.34;5137437;27;19931;-35
2022/11/07 00:42:44;;;;;;;;;;;;;;;20.41;48.72;100580.41;5139510;27;19949;-35
2022/11/07 00:45:10;;;;;;;;;;;;;;;20.41;48.87;100582.34;5140809;27;19923;-38
2022/11/07 00:47:36;;;;;;;;;;;;;;;20.41;48.68;100574.06;5141723;27;19927;-35
2022/11/07 00:50:02;;;;;;;;;;;;;;;20.41;48.83;100576.81;5139527;27;19931;-35
2022/11/07 00:52:27;;;;;;;;;;;;;;;20.41;48.73;100576.81;5122412;27;19930;-35
2022/11/07 00:54:53;;;;;;;;;;;;;;;20.41;48.87;100576.81;5140205;27;20347;-35
2022/11/07 00:57:18;;;;;;;;;;;;;;;20.41;48.82;100582.34;5144233;27;19931;-35
2022/11/07 00:59:44;;;;;;;;;;;;;;;20.41;48.82;100590.66;5139265;27;20419;-35
2022/11/07 01:02:09;;;;;;;;;;;;;;;20.41;48.71;100580.41;5140612;27;19930;-35
2022/11/07 01:07:21;;;;;;;;;;;;;;;20.41;48.80;100583.19;5114334;27;20540;-35
2022/11/07 01:09:47;;;;;;;;;;;;;;;20.41;48.78;100583.19;5137821;27;19931;-35
2022/11/07 01:12:12;;;;;;;;;;;;;;;20.41;48.74;100579.59;5140408;27;19923;-35
2022/11/07 01:14:38;;;;;;;;;;;;;;;20.42;48.90;100586.75;5140378;27;19938;-35
2022/11/07 01:17:03;;;;;;;;;;;;;;;20.41;48.81;100579.59;5136424;27;20342;-35
2022/11/07 01:19:29;;;;;;;;;;;;;;;20.41;48.73;100583.19;5143282;27;19923;-35
2022/11/07 01:21:54;;;;;;;;;;;;;;;20.40;49.01;100584.31;5144485;27;19927;-35
2022/11/07 01:24:20;;;;;;;;;;;;;;;20.41;48.88;100585.13;5138500;27;19935;-35
2022/11/07 01:26:46;;;;;;;;;;;;;;;20.41;48.70;100579.59;5136866;27;19965;-34
2022/11/07 01:29:12;;;;;;;;;;;;;;;20.41;48.80;100585.13;5125836;27;20035;-35
2022/11/07 01:31:39;;;;;;;;;;;;;;;20.41;48.85;100585.13;5139664;27;20317;-35
2022/11/07 01:34:04;;;;;;;;;;;;;;;20.41;48.96;100580.41;5141528;27;19927;-35
2022/11/07 01:36:30;;;;;;;;;;;;;;;20.41;48.90;100585.94;5138214;27;19923;-34
2022/11/07 01:38:55;;;;;;;;;;;;;;;20.41;48.59;100583.19;5140316;27;20337;-35
2022/11/07 01:41:24;;;;;;;;;;;;;;;20.41;48.78;100587.88;5139810;27;19923;-35
2022/11/07 01:43:54;;;;;;;;;;;;;;;20.40;48.73;100573.25;5118023;27;20287;-35
2022/11/07 01:46:21;;;;;;;;;;;;;;;20.41;48.80;100579.59;5122582;27;19970;-35
2022/11/07 01:48:49;;;;;;;;;;;;;;;20.40;48.82;100584.31;5144532;27;19959;-35
2022/11/07 01:51:14;;;;;;;;;;;;;;;20.41;48.75;100574.06;5136003;27;19981;-35
2022/11/07 01:53:40;;;;;;;;;;;;;;;20.40;48.80;100570.47;5143090;27;19923;-34
2022/11/07 01:56:07;;;;;;;;;;;;;;;20.41;48.87;100579.59;5140175;27;19930;-35
2022/11/07 01:58:32;;;;;;;;;;;;;;;20.40;48.90;100570.47;5137090;27;19977;-34
2022/11/07 02:00:58;;;;;;;;;;;;;;;20.40;48.81;100570.47;5133931;27;19931;-34
2022/11/07 02:03:23;;;;;;;;;;;;;;;20.41;48.88;100571.28;5140689;27;20294;-34
2022/11/07 02:05:53;;;;;;;;;;;;;;;20.41;48.63;100568.53;5137564;27;19978;-35
2022/11/07 02:08:18;;;;;;;;;;;;;;;20.40;48.85;100566.88;5138282;27;19947;-35
2022/11/07 02:10:44;;;;;;;;;;;;;;;20.40;48.81;100576.00;5134893;27;20334;-35
2022/11/07 02:13:10;;;;;;;;;;;;;;;20.40;48.82;100584.31;5139828;27;19931;-35
2022/11/07 02:15:35;;;;;;;;;;;;;;;20.41;48.70;100579.59;5116558;27;19923;-35
2022/11/07 02:18:01;;;;;;;;;;;;;;;20.40;48.72;100581.53;5140142;27;19927;-35
2022/11/07 02:20:27;;;;;;;;;;;;;;;20.41;48.96;100579.59;5139874;27;19923;-35
2022/11/07 02:23:03;;;;;;;;;;;;;;;20.40;48.85;100584.31;5136638;27;19927;-35
2022/11/07 02:25:29;;;;;;;;;;;;;;;20.39;48.94;100577.13;5137642;27;19973;-35
2022/11/07 02:27:56;;;;;;;;;;;;;;;20.41;48.70;100582.34;5140869;27;19927;-34
2022/11/07 02:30:24;;;;;;;;;;;;;;;20.40;48.85;100578.78;5123740;27;20417;-35
2022/11/07 02:32:49;;;;;;;;;;;;;;;20.39;48.74;100582.66;5138185;27;19954;-35
2022/11/07 02:35:32;;;;;;;;;;;;;;;20.40;48.89;100581.53;5139738;27;20299;-35
2022/11/07 02:37:57;;;;;;;;;;;;;;;20.41;48.76;100574.06;5123535;27;20014;-34
2022/11/07 02:40:23;;;;;;;;;;;;;;;20.40;48.71;100577.94;5142316;27;19923;-35
2022/11/07 02:42:48;;;;;;;;;;;;;;;20.40;48.71;100578.78;5142522;27;19923;-35
2022/11/07 02:45:16;;;;;;;;;;;;;;;20.40;48.75;100584.31;5136751;27;20012;-35
2022/11/07 02:47:41;;;;;;;;;;;;;;;20.39;48.69;100579.91;5117951;27;20458;-35
2022/11/07 02:50:08;;;;;;;;;;;;;;;20.41;48.81;100585.13;5139854;27;19979;-35
2022/11/07 02:52:33;;;;;;;;;;;;;;;20.40;48.92;100578.78;5134778;27;19970;-34
2022/11/07 02:54:59;;;;;;;;;;;;;;;20.40;48.85;100576.00;5134380;27;19924;-35
2022/11/07 02:57:25;;;;;;;;;;;;;;;20.40;48.99;100575.19;5141269;27;19953;-35
2022/11/07 02:59:51;;;;;;;;;;;;;;;20.40;48.90;100580.72;5143014;27;20000;-35
2022/11/07 03:02:16;;;;;;;;;;;;;;;20.41;48.74;100582.34;5138420;27;20324;-35
2022/11/07 03:04:42;;;;;;;;;;;;;;;20.41;48.91;100587.88;5138533;27;19923;-34
2022/11/07 03:07:14;;;;;;;;;;;;;;;20.40;48.75;100584.31;5139518;27;19976;-35
2022/11/07 03:09:39;;;;;;;;;;;;;;;20.41;48.79;100591.47;5132744;27;19923;-35
2022/11/07 03:12:05;;;;;;;;;;;;;;;20.40;48.76;100589.00;5135763;27;19927;-35
2022/11/07 03:14:31;;;;;;;;;;;;;;;20.40;48.87;100587.06;5140185;27;19923;-35
2022/11/07 03:16:56;;;;;;;;;;;;;;;20.41;48.85;100590.66;5138849;27;19923;-34
2022/11/07 03:19:22;;;;;;;;;;;;;;;20.40;48.93;100592.59;5118594;27;20336;-35
2022/11/07 03:21:49;;;;;;;;;;;;;;;20.40;48.87;100594.53;5135769;27;19927;-35
2022/11/07 03:24:15;;;;;;;;;;;;;;;20.39;48.75;100595.66;5139664;27;19962;-35
2022/11/07 03:26:40;;;;;;;;;;;;;;;20.40;48.93;100600.91;5138393;27;20302;-35
2022/11/07 03:29:06;;;;;;;;;;;;;;;20.40;48.47;100600.06;5142857;27;19927;-35
2022/11/07 03:31:32;;;;;;;;;;;;;;;20.40;48.87;100589.00;5136997;27;19950;-35
2022/11/07 03:33:57;;;;;;;;;;;;;;;20.39;48.71;100593.72;5143112;27;20502;-35
2022/11/07 03:36:23;;;;;;;;;;;;;;;20.40;48.70;100595.38;5135446;27;19968;-35
2022/11/07 03:38:48;;;;;;;;;;;;;;;20.40;48.92;100594.53;5135523;27;19935;-35
2022/11/07 03:41:16;;;;;;;;;;;;;;;20.40;49.07;100592.59;5138123;27;20345;-35
2022/11/07 03:43:42;;;;;;;;;;;;;;;20.40;48.73;100594.53;5137839;27;20014;-35
2022/11/07 03:46:08;;;;;;;;;;;;;;;20.40;48.98;100600.91;5134920;27;20050;-36
2022/11/07 03:48:33;;;;;;;;;;;;;;;20.39;48.71;100599.25;5140024;27;20287;-35
2022/11/07 03:50:59;;;;;;;;;;;;;;;20.39;48.93;100603.97;5135977;27;19928;-34
2022/11/07 03:53:24;;;;;;;;;;;;;;;20.40;48.91;100600.06;5133122;27;19934;-34
2022/11/07 03:55:52;;;;;;;;;;;;;;;20.40;48.77;100605.59;5138296;27;19967;-35
2022/11/07 03:58:18;;;;;;;;;;;;;;;20.39;48.90;100607.56;5140502;27;19981;-35
2022/11/07 04:00:43;;;;;;;;;;;;;;;20.39;48.82;100607.56;5137163;27;19923;-35
2022/11/07 04:03:09;;;;;;;;;;;;;;;20.39;48.96;100613.09;5139642;27;19923;-35
2022/11/07 04:05:35;;;;;;;;;;;;;;;20.39;48.89;100615.84;5140569;27;19927;-35
2022/11/07 04:08:00;;;;;;;;;;;;;;;20.39;48.95;100609.50;5138859;27;20283;-35
2022/11/07 04:10:26;;;;;;;;;;;;;;;20.40;48.71;100613.91;5142746;27;19923;-35
2022/11/07 04:18:23;;;;;;;;;;;;;;;20.40;48.93;100622.19;5116826;27;19973;-35
2022/11/07 04:20:49;;;;;;;;;;;;;;;20.40;48.97;100613.91;5138530;27;19931;-35
2022/11/07 04:23:14;;;;;;;;;;;;;;;20.40;48.87;100611.13;5137554;27;19931;-34
2022/11/07 04:28:26;;;;;;;;;;;;;;;20.39;48.93;100624.16;5125456;27;19959;-35
2022/11/07 04:30:51;;;;;;;;;;;;;;;20.39;48.90;100618.63;5140912;27;19923;-35
2022/11/07 04:33:17;;;;;;;;;;;;;;;20.40;48.98;100622.19;5141967;27;19923;-35
2022/11/07 04:35:43;;;;;;;;;;;;;;;20.41;48.91;100618.31;5138856;27;19927;-36
2022/11/07 04:38:08;;;;;;;;;;;;;;;20.39;48.80;100618.63;5143101;27;19923;-35
2022/11/07 04:40:34;;;;;;;;;;;;;;;20.38;48.95;100619.75;5141956;27;19976;-34
2022/11/07 04:42:59;;;;;;;;;;;;;;;20.39;48.99;100613.09;5142408;27;19924;-34
2022/11/07 04:45:25;;;;;;;;;;;;;;;20.39;49.09;100610.31;5141993;27;19976;-35
2022/11/07 04:47:50;;;;;;;;;;;;;;;20.40;48.81;100609.19;5137182;27;19927;-35
2022/11/07 04:50:17;;;;;;;;;;;;;;;20.40;48.76;100608.38;5141967;27;19931;-35
2022/11/07 04:52:42;;;;;;;;;;;;;;;20.39;48.94;100606.72;5122201;27;21165;-35
2022/11/07 04:55:09;;;;;;;;;;;;;;;20.38;48.85;100605.91;5120625;27;20314;-35
2022/11/07 04:57:34;;;;;;;;;;;;;;;20.39;48.95;100612.25;5120959;27;20002;-35
2022/11/07 05:00:00;;;;;;;;;;;;;;;20.39;48.98;100610.31;5127567;27;19931;-35
2022/11/07 05:02:25;;;;;;;;;;;;;;;20.39;48.84;100602.03;5127699;27;20052;-35
2022/11/07 05:04:51;;;;;;;;;;;;;;;20.39;48.88;100602.03;5133860;27;19938;-35
2022/11/07 05:07:17;;;;;;;;;;;;;;;20.39;48.90;100601.19;5122882;27;20389;-35
2022/11/07 05:09:43;;;;;;;;;;;;;;;20.38;48.94;100608.69;5134959;27;20147;-35
2022/11/07 05:12:08;;;;;;;;;;;;;;;20.39;48.89;100602.03;5141822;27;19923;-35
2022/11/07 05:14:34;;;;;;;;;;;;;;;20.39;48.94;100603.97;5134483;27;20299;-35
2022/11/07 05:17:00;;;;;;;;;;;;;;;20.39;48.96;100604.78;5140516;27;19923;-35
2022/11/07 05:19:25;;;;;;;;;;;;;;;20.39;48.92;100612.25;5123689;27;20043;-35
2022/11/07 05:24:36;;;;;;;;;;;;;;;20.39;48.77;100602.03;5124738;27;19960;-35
2022/11/07 05:27:02;;;;;;;;;;;;;;;20.39;48.79;100599.25;5139686;27;19927;-35
2022/11/07 05:29:27;;;;;;;;;;;;;;;20.39;48.96;100606.72;5135688;27;20532;-34
2022/11/07 05:31:53;;;;;;;;;;;;;;;20.40;48.80;100608.38;5138259;27;19976;-35
2022/11/07 05:34:19;;;;;;;;;;;;;;;20.39;48.94;100613.09;5140214;27;19931;-35
2022/11/07 05:36:44;;;;;;;;;;;;;;;20.39;49.10;100623.31;5134424;27;20358;-35
2022/11/07 05:39:10;;;;;;;;;;;;;;;20.38;49.11;100621.66;5142994;27;19928;-35
2022/11/07 05:41:35;;;;;;;;;;;;;;;20.40;48.97;100613.91;5140428;27;20421;-35
2022/11/07 05:44:01;;;;;;;;;;;;;;;20.38;48.77;100611.44;5141733;27;20572;-35
2022/11/07 05:46:26;;;;;;;;;;;;;;;20.39;49.03;100612.25;5140842;27;19930;-34
2022/11/07 05:48:52;;;;;;;;;;;;;;;20.39;48.90;100612.25;5134654;27;19927;-35
2022/11/07 05:51:25;;;;;;;;;;;;;;;20.39;49.00;100609.50;5136411;27;20390;-35
2022/11/07 05:53:51;;;;;;;;;;;;;;;20.38;49.08;100611.44;5140754;27;19927;-35
2022/11/07 05:56:16;;;;;;;;;;;;;;;20.38;48.67;100608.69;5139273;27;19923;-34
2022/11/07 05:58:42;;;;;;;;;;;;;;;20.38;48.83;100619.75;5135544;27;19930;-35
2022/11/07 06:01:08;;;;;;;;;;;;;;;20.38;49.02;100616.97;5138655;27;20352;-35
2022/11/07 06:03:33;;;;;;;;;;;;;;;20.39;48.83;100615.84;5146467;27;19956;-34
2022/11/07 06:05:59;;;;;;;;;;;;;;;20.38;48.78;100614.22;5143228;27;19923;-35
2022/11/07 06:08:24;;;;;;;;;;;;;;;20.38;48.92;100614.22;5137379;27;19927;-34
2022/11/07 06:10:50;;;;;;;;;;;;;;;20.40;48.85;100627.72;5143554;27;19923;-34
2022/11/07 06:13:15;;;;;;;;;;;;;;;20.39;48.85;100615.84;5139264;27;20287;-35
2022/11/07 06:15:42;;;;;;;;;;;;;;;20.39;49.00;100623.31;5118494;27;19923;-35
2022/11/07 06:18:11;;;;;;;;;;;;;;;20.39;48.99;100632.44;5117849;27;20370;-34
2022/11/07 06:20:36;;;;;;;;;;;;;;;20.38;48.95;100628.03;5121676;27;20060;-34
2022/11/07 06:23:02;;;;;;;;;;;;;;;20.39;48.95;100634.38;5143076;27;19923;-35
2022/11/07 06:25:28;;;;;;;;;;;;;;;20.38;48.98;100633.56;5121736;27;19970;-35
2022/11/07 06:28:01;;;;;;;;;;;;;;;20.39;48.98;100634.38;5137483;27;19930;-35
2022/11/07 06:30:27;;;;;;;;;;;;;;;20.38;48.98;100638.25;5121093;27;20022;-35
2022/11/07 06:32:53;;;;;;;;;;;;;;;20.38;49.02;100635.50;5139021;27;20172;-35
2022/11/07 06:35:18;;;;;;;;;;;;;;;20.39;48.86;100635.22;5139176;27;19966;-35
2022/11/07 06:37:44;;;;;;;;;;;;;;;20.37;48.91;100631.91;5134891;27;19924;-34
2022/11/07 06:40:10;;;;;;;;;;;;;;;20.37;49.05;100637.44;5140694;27;20390;-35
2022/11/07 06:42:35;;;;;;;;;;;;;;;20.38;49.01;100641.03;5141002;27;20393;-35
2022/11/07 06:45:01;;;;;;;;;;;;;;;20.38;49.08;100647.41;5139382;27;19923;-34
2022/11/07 06:47:26;;;;;;;;;;;;;;;20.38;48.90;100638.25;5136309;27;19923;-35
2022/11/07 06:49:52;;;;;;;;;;;;;;;20.38;49.01;100649.31;5136796;27;19927;-35
2022/11/07 06:52:17;;;;;;;;;;;;;;;20.38;48.79;100647.41;5138380;27;20026;-35
2022/11/07 06:54:43;;;;;;;;;;;;;;;20.38;48.91;100649.31;5121951;27;19984;-35
2022/11/07 06:57:09;;;;;;;;;;;;;;;20.39;48.96;100651.81;5139465;27;19924;-35
2022/11/07 06:59:34;;;;;;;;;;;;;;;20.38;48.89;100660.38;5121954;27;19930;-34
2022/11/07 07:02:00;;;;;;;;;;;;;;;20.39;49.12;100648.22;5145319;27;19946;-35
2022/11/07 07:04:25;;;;;;;;;;;;;;;20.39;49.06;100651.00;5138271;27;19927;-35
2022/11/07 07:06:51;;;;;;;;;;;;;;;20.38;48.86;100652.09;5136692;27;20276;-35
2022/11/07 07:09:16;;;;;;;;;;;;;;;20.38;48.95;100652.09;5141869;27;19934;-35
2022/11/07 07:11:43;;;;;;;;;;;;;;;20.38;49.06;100658.47;5142969;27;19930;-35
2022/11/07 07:14:09;;;;;;;;;;;;;;;20.38;49.03;100663.16;5137779;27;20544;-35
2022/11/07 07:16:37;;;;;;;;;;;;;;;20.38;48.95;100665.91;5120406;27;19930;-35
2022/11/07 07:19:02;;;;;;;;;;;;;;;20.37;49.03;100662.31;5135970;27;19924;-35
2022/11/07 07:21:28;;;;;;;;;;;;;;;20.38;48.72;100664.00;5136583;27;20015;-35
2022/11/07 07:23:54;;;;;;;;;;;;;;;20.38;49.04;100668.69;5138674;27;19923;-34
2022/11/07 07:26:19;;;;;;;;;;;;;;;20.37;49.03;100667.84;5137030;27;20543;-35
2022/11/07 07:28:45;;;;;;;;;;;;;;;20.38;48.93;100666.75;5137103;27;19931;-35
2022/11/07 07:31:16;;;;;;;;;;;;;;;20.38;49.00;100675.06;5136334;27;19938;-35
2022/11/07 07:33:42;;;;;;;;;;;;;;;20.38;48.98;100676.97;5139837;27;20031;-35
2022/11/07 07:36:08;;;;;;;;;;;;;;;20.38;49.01;100671.44;5138221;27;20382;-35
2022/11/07 07:38:33;;;;;;;;;;;;;;;20.39;48.98;100681.41;5120841;27;19987;-35
2022/11/07 07:40:59;;;;;;;;;;;;;;;20.38;49.02;100682.50;5139721;27;19923;-35
2022/11/07 07:43:25;;;;;;;;;;;;;;;20.38;49.18;100683.34;5121038;27;19996;-34
2022/11/07 07:45:51;;;;;;;;;;;;;;;20.38;48.98;100676.97;5118636;27;20026;-35
2022/11/07 07:48:16;;;;;;;;;;;;;;;20.38;48.86;100688.03;5139689;27;19927;-34
2022/11/07 07:50:42;;;;;;;;;;;;;;;20.37;49.04;100686.41;5135768;27;19926;-35
2022/11/07 07:53:07;;;;;;;;;;;;;;;20.38;48.93;100690.81;5141240;27;19923;-35
2022/11/07 07:55:34;;;;;;;;;;;;;;;20.37;48.90;100698.28;5135301;27;19947;-35
2022/11/07 07:58:00;;;;;;;;;;;;;;;20.37;48.93;100703.81;5133817;27;19931;-35
2022/11/07 08:00:25;;;;;;;;;;;;;;;20.38;49.00;100701.88;5137566;27;19923;-34
2022/11/07 08:02:58;;;;;;;;;;;;;;;20.38;49.03;100701.88;5139038;27;19938;-35
2022/11/07 08:05:24;;;;;;;;;;;;;;;20.38;48.85;100708.25;5137905;27;20396;-35
2022/11/07 08:07:50;;;;;;;;;;;;;;;20.37;49.13;100709.34;5144583;27;19973;-34
2022/11/07 08:10:16;;;;;;;;;;;;;;;20.38;49.04;100719.31;5147040;27;19923;-34
2022/11/07 08:13:01;;;;;;;;;;;;;;;20.38;48.98;100716.53;5113653;27;19923;-35
2022/11/07 08:15:27;;;;;;;;;;;;;;;20.38;48.92;100721.22;5143542;27;19929;-36
2022/11/07 08:17:52;;;;;;;;;;;;;;;20.37;48.86;100720.41;5139817;27;19932;-35
2022/11/07 08:20:19;;;;;;;;;;;;;;;20.37;48.90;100717.63;5144928;27;19976;-35
2022/11/07 08:22:44;;;;;;;;;;;;;;;20.38;49.07;100727.59;5143301;27;20432;-35
2022/11/07 08:25:10;;;;;;;;;;;;;;;20.37;49.09;100717.63;5141498;27;19950;-35
2022/11/07 08:27:35;;;;;;;;;;;;;;;20.37;48.95;100723.16;5140723;27;19927;-35
2022/11/07 08:30:02;;;;;;;;;;;;;;;20.38;49.06;100729.53;5143137;27;19942;-35
2022/11/07 08:32:28;;;;;;;;;;;;;;;20.37;49.09;100731.47;5123758;27;19977;-34
2022/11/07 08:34:53;;;;;;;;;;;;;;;20.38;49.03;100735.06;5142820;27;19923;-35
2022/11/07 08:37:19;;;;;;;;;;;;;;;20.38;49.15;100735.06;5138506;27;19927;-35
2022/11/07 08:39:44;;;;;;;;;;;;;;;20.38;48.92;100726.75;5140017;27;20323;-35
2022/11/07 08:42:10;;;;;;;;;;;;;;;20.37;49.00;100733.41;5124629;27;19930;-35
2022/11/07 08:44:35;;;;;;;;;;;;;;;20.37;49.08;100725.94;5135442;27;19931;-35
2022/11/07 08:47:02;;;;;;;;;;;;;;;20.38;49.04;100724.00;5142875;27;19923;-35
2022/11/07 08:49:33;;;;;;;;;;;;;;;20.38;49.11;100735.06;5142862;27;19952;-35
2022/11/07 08:52:00;;;;;;;;;;;;;;;20.37;49.20;100737.00;5138259;27;19927;-35
2022/11/07 08:54:27;;;;;;;;;;;;;;;20.37;49.08;100739.75;5141285;27;19977;-35
2022/11/07 08:56:53;;;;;;;;;;;;;;;20.37;49.08;100745.28;5125620;27;20275;-35
2022/11/07 08:59:18;;;;;;;;;;;;;;;20.38;49.15;100737.81;5138908;27;19934;-35
2022/11/07 09:01:44;;;;;;;;;;;;;;;20.37;48.94;100748.06;5141522;27;19931;-35
2022/11/07 09:04:29;;;;;;;;;;;;;;;20.38;49.24;100740.59;5120261;27;19938;-35
2022/11/07 09:06:55;;;;;;;;;;;;;;;20.38;49.18;100748.88;5143809;27;19923;-34
2022/11/07 09:09:21;;;;;;;;;;;;;;;20.37;49.06;100744.47;5138339;27;21136;-34
2022/11/07 09:11:46;;;;;;;;;;;;;;;20.38;49.10;100748.88;5138191;27;19931;-35
2022/11/07 09:14:12;;;;;;;;;;;;;;;20.37;48.95;100748.06;5140282;27;19930;-35
2022/11/07 09:16:37;;;;;;;;;;;;;;;20.38;49.09;100749.75;5140363;27;20324;-35
2022/11/07 09:19:03;;;;;;;;;;;;;;;20.38;48.87;100748.88;5138909;27;19930;-35
2022/11/07 09:21:28;;;;;;;;;;;;;;;20.37;49.13;100750.81;5143405;27;19923;-35
2022/11/07 09:23:54;;;;;;;;;;;;;;;20.37;49.10;100750.81;5140853;27;19931;-35
2022/11/07 09:26:20;;;;;;;;;;;;;;;20.38;48.96;100755.28;5137626;27;19931;-35
2022/11/07 09:28:45;;;;;;;;;;;;;;;20.39;49.01;100761.63;5140926;27;20119;-34
2022/11/07 09:31:18;;;;;;;;;;;;;;;20.37;48.85;100764.66;5138680;27;20268;-35
2022/11/07 09:33:43;;;;;;;;;;;;;;;20.37;48.99;100763.84;5138773;27;20410;-35
2022/11/07 09:36:10;;;;;;;;;;;;;;;20.38;49.07;100771.00;5139422;27;19957;-35
2022/11/07 09:38:36;;;;;;;;;;;;;;;20.37;49.11;100781.25;5134124;27;19923;-35
2022/11/07 09:41:11;;;;;;;;;;;;;;;20.38;49.09;100779.31;5140186;27;20260;-35
2022/11/07 09:43:57;;;;;;;;;;;;;;;20.37;49.05;100785.97;5137138;27;20030;-35
2022/11/07 09:46:43;;;;;;;;;;;;;;;20.37;48.90;100784.03;5121787;27;20387;-35
2022/11/07 09:49:12;;;;;;;;;;;;;;;20.38;49.08;100787.59;5125563;27;19955;-35
2022/11/07 09:51:38;;;;;;;;;;;;;;;20.37;49.03;100789.56;5143334;27;19931;-35
2022/11/07 09:54:05;;;;;;;;;;;;;;;20.37;48.88;100797.84;5121999;27;19970;-35
2022/11/07 09:56:31;;;;;;;;;;;;;;;20.38;49.12;100798.66;5136487;27;20015;-35
2022/11/07 09:58:56;;;;;;;;;;;;;;;20.39;49.07;100808.63;5120547;27;20034;-35
2022/11/07 10:01:30;;;;;;;;;;;;;;;20.37;49.01;100795.09;5144261;27;19931;-35
2022/11/07 10:03:56;;;;;;;;;;;;;;;20.37;49.04;100800.63;5139096;27;19965;-35
2022/11/07 10:06:44;;;;;;;;;;;;;;;20.37;49.16;100797.84;5124492;27;19923;-34
2022/11/07 10:09:11;;;;;;;;;;;;;;;20.37;49.05;100795.09;5136949;27;19966;-35
2022/11/07 10:11:43;;;;;;;;;;;;;;;20.37;49.12;100795.09;5118137;27;19962;-35
2022/11/07 10:14:28;;;;;;;;;;;;;;;20.38;49.19;100798.66;5119121;27;20006;-35
2022/11/07 10:16:57;;;;;;;;;;;;;;;20.37;49.15;100795.09;5127637;27;20351;-35
2022/11/07 10:19:27;;;;;;;;;;;;;;;20.37;49.12;100803.38;5139752;27;19958;-35
2022/11/07 10:22:12;;;;;;;;;;;;;;;20.38;49.11;100804.19;5138790;27;19942;-36
2022/11/07 10:24:48;;;;;;;;;;;;;;;20.37;49.17;100802.56;5123976;27;19950;-35
2022/11/07 10:27:13;;;;;;;;;;;;;;;20.37;49.30;100806.16;5141564;27;19980;-35
2022/11/07 10:29:49;;;;;;;;;;;;;;;20.38;49.26;100796.75;5138161;27;19931;-34
2022/11/07 10:32:35;;;;;;;;;;;;;;;20.37;48.91;100806.16;5125873;27;19958;-35
2022/11/07 10:35:09;;;;;;;;;;;;;;;20.37;49.28;100806.16;5120971;27;20016;-35
2022/11/07 10:37:35;;;;;;;;;;;;;;;20.38;49.12;100801.44;5140915;27;20003;-35
2022/11/07 10:40:00;;;;;;;;;;;;;;;20.38;49.11;100806.97;5139429;27;19927;-35
2022/11/07 10:42:28;;;;;;;;;;;;;;;20.37;49.20;100800.63;5138598;27;19923;-34
2022/11/07 10:44:54;;;;;;;;;;;;;;;20.37;49.00;100808.09;5133408;27;20027;-35
2022/11/07 10:47:21;;;;;;;;;;;;;;;20.37;48.94;100806.16;5139945;27;19982;-35
2022/11/07 10:50:02;;;;;;;;;;;;;;;20.37;49.19;100797.84;5144750;27;19978;-35
2022/11/07 10:52:27;;;;;;;;;;;;;;;20.37;49.09;100794.25;5118834;27;20402;-35
2022/11/07 10:55:13;;;;;;;;;;;;;;;20.36;49.05;100796.22;5140673;27;19923;-35
2022/11/07 10:57:38;;;;;;;;;;;;;;;20.36;49.09;100796.22;5121981;27;20014;-35
2022/11/07 11:00:06;;;;;;;;;;;;;;;20.37;49.04;100795.09;5139586;27;19934;-35
2022/11/07 11:02:40;;;;;;;;;;;;;;;20.37;49.12;100799.78;5125072;27;20025;-35
2022/11/07 11:05:23;;;;;;;;;;;;;;;20.37;49.19;100803.38;5123129;27;19947;-35
2022/11/07 11:07:48;;;;;;;;;;;;;;;20.37;49.08;100802.56;5119647;27;19934;-34
2022/11/07 11:10:30;;;;;;;;;;;;;;;20.37;49.05;100794.25;5139778;27;19927;-35
2022/11/07 11:12:56;;;;;;;;;;;;;;;20.36;49.31;100798.16;5140955;27;20364;-35
2022/11/07 11:15:23;;;;;;;;;;;;;;;20.37;49.00;100795.09;5137360;27;19961;-35
2022/11/07 11:18:05;;;;;;;;;;;;;;;20.37;49.16;100791.50;5121158;27;20383;-35
2022/11/07 11:20:35;;;;;;;;;;;;;;;20.37;49.16;100800.63;5136889;27;20399;-35
2022/11/07 11:23:00;;;;;;;;;;;;;;;20.36;49.18;100798.97;5117309;27;19959;-35
2022/11/07 11:25:26;;;;;;;;;;;;;;;20.36;49.16;100796.22;5137946;27;19931;-35
2022/11/07 11:27:59;;;;;;;;;;;;;;;20.36;48.97;100792.63;5139403;27;19980;-36
2022/11/07 11:30:24;;;;;;;;;;;;;;;20.37;48.99;100795.09;5138998;27;20003;-35
2022/11/07 11:32:53;;;;;;;;;;;;;;;20.38;49.11;100805.06;5140895;27;19980;-35
2022/11/07 11:35:39;;;;;;;;;;;;;;;20.36;49.18;100793.44;5143671;27;20484;-35
2022/11/07 11:38:27;;;;;;;;;;;;;;;20.36;48.96;100790.69;5131466;27;20377;-35
2022/11/07 11:41:13;;;;;;;;;;;;;;;20.37;49.26;100795.09;5127126;27;20391;-35
2022/11/07 11:43:47;;;;;;;;;;;;;;;20.37;49.20;100799.78;5121782;27;19998;-35
2022/11/07 11:46:13;;;;;;;;;;;;;;;20.36;49.06;100796.22;5122018;27;19959;-35
2022/11/07 11:48:42;;;;;;;;;;;;;;;20.37;49.20;100786.78;5120146;27;19962;-35
2022/11/07 11:51:12;;;;;;;;;;;;;;;20.37;49.20;100789.56;5143929;27;20025;-35
2022/11/07 11:53:37;;;;;;;;;;;;;;;20.37;49.14;100791.50;5143431;27;19981;-35
2022/11/07 11:59:00;;;;;;;;;;;;;;;20.37;49.17;100783.19;5173927;27;19930;-34
2022/11/07 12:01:46;;;;;;;;;;;;;;;20.36;49.22;100776.84;5149852;27;19945;-34
2022/11/07 12:04:18;;;;;;;;;;;;;;;20.36;48.94;100778.78;5149473;27;19927;-34
2022/11/07 12:06:44;;;;;;;;;;;;;;;20.37;49.14;100785.97;5164234;27;20224;-34
2022/11/07 12:09:12;;;;;;;;;;;;;;;20.37;49.11;100774.91;5147065;27;19927;-34
2022/11/07 12:12:00;;;;;;;;;;;;;;;20.36;49.23;100782.38;5167671;27;19923;-34
2022/11/07 12:14:45;;;;;;;;;;;;;;;20.36;49.23;100779.59;5144806;27;20429;-34
2022/11/07 12:17:16;;;;;;;;;;;;;;;20.37;49.25;100775.72;5148851;27;19960;-34
2022/11/07 12:19:45;;;;;;;;;;;;;;;20.37;49.24;100781.25;5168313;27;20354;-34
2022/11/07 12:22:14;;;;;;;;;;;;;;;20.37;49.11;100775.72;5164765;27;19968;-34
2022/11/07 12:24:56;;;;;;;;;;;;;;;20.37;49.01;100770.19;5165502;27;19966;-34
2022/11/07 12:27:41;;;;;;;;;;;;;;;20.36;49.30;100774.06;5163896;27;19966;-34
2022/11/07 12:30:13;;;;;;;;;;;;;;;20.37;49.31;100763.84;5146471;27;19954;-34
2022/11/07 12:32:58;;;;;;;;;;;;;;;20.37;49.22;100769.38;5164479;27;20001;-34
2022/11/07 12:35:28;;;;;;;;;;;;;;;20.37;49.22;100770.19;5147747;27;20051;-34
2022/11/07 12:38:01;;;;;;;;;;;;;;;20.38;49.25;100768.25;5163604;27;19970;-34
2022/11/07 12:40:33;;;;;;;;;;;;;;;20.37;49.09;100772.13;5146609;27;19923;-34
2022/11/07 12:43:18;;;;;;;;;;;;;;;20.37;49.27;100772.94;5166744;27;20397;-34
2022/11/07 12:45:47;;;;;;;;;;;;;;;20.37;49.44;100764.66;5145870;27;19991;-34
2022/11/07 12:48:32;;;;;;;;;;;;;;;20.37;49.10;100769.38;5163893;27;19923;-35
2022/11/07 12:51:04;;;;;;;;;;;;;;;20.38;49.26;100773.78;5148712;27;19981;-34
2022/11/07 12:53:36;;;;;;;;;;;;;;;20.37;49.28;100764.66;5164141;27;20380;-35
2022/11/07 12:56:07;;;;;;;;;;;;;;;20.38;49.19;100762.72;5144993;27;19973;-34